Pembroke, Kentucky
Current Conditions -  °F | °C
As of 11:26 PM on Wednesday 26 Nov 2014 (Local Time) from KHOP Reporting Station
Overcast Overcast  
Wind Chill: 29°   Ceiling: 1500
Heat Index: 37°   Visibility: 10mi
Dew Point: 36°   Wind: 14mph
Humidity: 93%   Direction: 280°W
Pressure: 30.08"   Gusts: NA
Location:  36.78°N, 87.36°W
Report Text: KHOP 270526Z AUTO 28012KT 10SM OVC015 03/02 A3008 RMK AO2
Loading
Personal Weather Stations






























Interactive Weather Map New forecast layout! Learn more

10-Day Weather Forecast

Advertisements
Track Severe Weather on mobile